sensor_id;sensor_type;location;lat;lon;timestamp;temperature;humidity
3380;DHT22;1703;51.964;7.642;2024-03-23T00:52:29;9.10;99.90
3380;DHT22;1703;51.964;7.642;2024-03-23T00:54:55;9.10;99.90
3380;DHT22;1703;51.964;7.642;2024-03-23T00:57:22;9.10;99.90
3380;DHT22;1703;51.964;7.642;2024-03-23T00:59:47;9.10;99.90
3380;DHT22;1703;51.964;7.642;2024-03-23T01:02:14;9.10;99.90
3380;DHT22;1703;51.964;7.642;2024-03-23T01:04:40;9.10;99.90
3380;DHT22;1703;51.964;7.642;2024-03-23T01:07:07;9.10;99.90
3380;DHT22;1703;51.964;7.642;2024-03-23T01:09:34;9.10;99.90
3380;DHT22;1703;51.964;7.642;2024-03-23T01:12:01;9.10;99.90
3380;DHT22;1703;51.964;7.642;2024-03-23T01:14:27;9.00;99.90
3380;DHT22;1703;51.964;7.642;2024-03-23T01:16:54;9.10;99.90
3380;DHT22;1703;51.964;7.642;2024-03-23T01:19:19;9.00;99.90
3380;DHT22;1703;51.964;7.642;2024-03-23T01:21:46;9.00;99.90
3380;DHT22;1703;51.964;7.642;2024-03-23T01:24:12;9.00;99.90
3380;DHT22;1703;51.964;7.642;2024-03-23T01:26:41;9.00;99.90
3380;DHT22;1703;51.964;7.642;2024-03-23T01:29:07;9.00;99.90
3380;DHT22;1703;51.964;7.642;2024-03-23T01:31:34;9.00;99.90
3380;DHT22;1703;51.964;7.642;2024-03-23T01:33:59;9.00;99.90
3380;DHT22;1703;51.964;7.642;2024-03-23T01:36:26;8.90;99.90
3380;DHT22;1703;51.964;7.642;2024-03-23T01:38:52;8.90;99.90
3380;DHT22;1703;51.964;7.642;2024-03-23T01:41:19;8.90;99.90
3380;DHT22;1703;51.964;7.642;2024-03-23T01:43:47;9.00;99.90
3380;DHT22;1703;51.964;7.642;2024-03-23T01:46:13;8.90;99.90
3380;DHT22;1703;51.964;7.642;2024-03-23T01:48:39;8.90;99.90
3380;DHT22;1703;51.964;7.642;2024-03-23T01:51:06;8.90;99.90
3380;DHT22;1703;51.964;7.642;2024-03-23T01:53:32;8.90;99.90
3380;DHT22;1703;51.964;7.642;2024-03-23T01:55:59;8.80;99.90
3380;DHT22;1703;51.964;7.642;2024-03-23T01:58:25;8.70;99.90
3380;DHT22;1703;51.964;7.642;2024-03-23T02:00:53;8.80;99.90
3380;DHT22;1703;51.964;7.642;2024-03-23T02:03:22;8.70;99.90
3380;DHT22;1703;51.964;7.642;2024-03-23T02:05:50;8.60;99.90
3380;DHT22;1703;51.964;7.642;2024-03-23T02:08:17;8.60;99.90
3380;DHT22;1703;51.964;7.642;2024-03-23T02:10:44;8.70;99.90
3380;DHT22;1703;51.964;7.642;2024-03-23T02:13:10;8.70;99.90
3380;DHT22;1703;51.964;7.642;2024-03-23T02:15:38;8.50;99.90
3380;DHT22;1703;51.964;7.642;2024-03-23T02:18:07;8.50;99.90
3380;DHT22;1703;51.964;7.642;2024-03-23T02:20:34;8.50;99.90
3380;DHT22;1703;51.964;7.642;2024-03-23T02:23:01;8.50;99.90
3380;DHT22;1703;51.964;7.642;2024-03-23T02:25:28;8.60;99.90
3380;DHT22;1703;51.964;7.642;2024-03-23T02:27:54;8.60;99.90
3380;DHT22;1703;51.964;7.642;2024-03-23T02:30:21;8.50;99.90
3380;DHT22;1703;51.964;7.642;2024-03-23T02:32:47;8.50;99.90
3380;DHT22;1703;51.964;7.642;2024-03-23T02:35:13;8.50;99.90
3380;DHT22;1703;51.964;7.642;2024-03-23T02:37:39;8.50;99.90
3380;DHT22;1703;51.964;7.642;2024-03-23T02:40:08;8.50;99.90
3380;DHT22;1703;51.964;7.642;2024-03-23T02:42:34;8.40;99.90
3380;DHT22;1703;51.964;7.642;2024-03-23T02:45:01;8.40;99.90
3380;DHT22;1703;51.964;7.642;2024-03-23T02:47:30;8.40;99.90
3380;DHT22;1703;51.964;7.642;2024-03-23T02:49:57;8.40;99.90
3380;DHT22;1703;51.964;7.642;2024-03-23T02:52:23;8.30;99.90
3380;DHT22;1703;51.964;7.642;2024-03-23T02:54:50;8.30;99.90
3380;DHT22;1703;51.964;7.642;2024-03-23T02:57:17;8.30;99.90
3380;DHT22;1703;51.964;7.642;2024-03-23T02:59:44;8.30;99.90
3380;DHT22;1703;51.964;7.642;2024-03-23T03:02:09;8.30;99.90
3380;DHT22;1703;51.964;7.642;2024-03-23T03:04:36;8.20;99.90
3380;DHT22;1703;51.964;7.642;2024-03-23T03:07:02;8.20;99.90
3380;DHT22;1703;51.964;7.642;2024-03-23T03:09:29;8.20;99.90
3380;DHT22;1703;51.964;7.642;2024-03-23T03:11:55;8.20;99.90
3380;DHT22;1703;51.964;7.642;2024-03-23T03:14:23;8.20;99.90
3380;DHT22;1703;51.964;7.642;2024-03-23T03:16:49;8.20;99.90
3380;DHT22;1703;51.964;7.642;2024-03-23T03:19:16;8.20;99.90
3380;DHT22;1703;51.964;7.642;2024-03-23T03:21:42;8.20;99.90
3380;DHT22;1703;51.964;7.642;2024-03-23T03:24:09;8.20;99.90
3380;DHT22;1703;51.964;7.642;2024-03-23T03:26:35;8.20;99.90
3380;DHT22;1703;51.964;7.642;2024-03-23T03:29:02;8.20;99.90
3380;DHT22;1703;51.964;7.642;2024-03-23T03:31:29;8.30;99.90
3380;DHT22;1703;51.964;7.642;2024-03-23T03:33:56;8.20;99.90
3380;DHT22;1703;51.964;7.642;2024-03-23T03:36:22;8.30;99.90
3380;DHT22;1703;51.964;7.642;2024-03-23T03:38:49;8.30;99.90
3380;DHT22;1703;51.964;7.642;2024-03-23T03:41:15;8.40;99.90
3380;DHT22;1703;51.964;7.642;2024-03-23T03:43:42;8.40;99.90
3380;DHT22;1703;51.964;7.642;2024-03-23T03:46:08;8.40;99.90
3380;DHT22;1703;51.964;7.642;2024-03-23T03:48:36;8.50;99.90
3380;DHT22;1703;51.964;7.642;2024-03-23T03:51:02;8.50;99.90
3380;DHT22;1703;51.964;7.642;2024-03-23T03:53:29;8.50;99.90
3380;DHT22;1703;51.964;7.642;2024-03-23T03:55:56;8.50;99.90
3380;DHT22;1703;51.964;7.642;2024-03-23T03:58:22;8.50;99.90
3380;DHT22;1703;51.964;7.642;2024-03-23T04:00:48;8.50;99.90
3380;DHT22;1703;51.964;7.642;2024-03-23T04:03:15;8.50;99.90
3380;DHT22;1703;51.964;7.642;2024-03-23T04:05:43;8.40;99.90
3380;DHT22;1703;51.964;7.642;2024-03-23T04:08:09;8.40;99.90
3380;DHT22;1703;51.964;7.642;2024-03-23T04:10:35;8.40;99.90
3380;DHT22;1703;51.964;7.642;2024-03-23T04:13:02;8.40;99.90
3380;DHT22;1703;51.964;7.642;2024-03-23T04:15:30;8.30;99.90
3380;DHT22;1703;51.964;7.642;2024-03-23T04:17:56;8.20;99.90
3380;DHT22;1703;51.964;7.642;2024-03-23T04:20:22;8.10;99.90
3380;DHT22;1703;51.964;7.642;2024-03-23T04:22:50;8.10;99.90
3380;DHT22;1703;51.964;7.642;2024-03-23T04:25:16;8.10;99.90
3380;DHT22;1703;51.964;7.642;2024-03-23T04:27:45;8.20;99.90
3380;DHT22;1703;51.964;7.642;2024-03-23T04:30:12;8.30;99.90
3380;DHT22;1703;51.964;7.642;2024-03-23T04:32:39;8.20;99.90
3380;DHT22;1703;51.964;7.642;2024-03-23T04:35:06;8.20;99.90
3380;DHT22;1703;51.964;7.642;2024-03-23T04:37:35;8.20;99.90
3380;DHT22;1703;51.964;7.642;2024-03-23T04:40:04;8.30;99.90
3380;DHT22;1703;51.964;7.642;2024-03-23T04:42:31;8.20;99.90
3380;DHT22;1703;51.964;7.642;2024-03-23T04:44:58;8.10;99.90
3380;DHT22;1703;51.964;7.642;2024-03-23T04:47:24;8.00;99.90
3380;DHT22;1703;51.964;7.642;2024-03-23T04:49:52;8.00;99.90
3380;DHT22;1703;51.964;7.642;2024-03-23T04:52:19;8.00;99.90
3380;DHT22;1703;51.964;7.642;2024-03-23T04:54:46;8.00;99.90
3380;DHT22;1703;51.964;7.642;2024-03-23T04:57:14;8.00;99.90
3380;DHT22;1703;51.964;7.642;2024-03-23T04:59:46;7.90;99.90
3380;DHT22;1703;51.964;7.642;2024-03-23T05:02:12;7.90;99.90
3380;DHT22;1703;51.964;7.642;2024-03-23T05:04:40;7.90;99.90
3380;DHT22;1703;51.964;7.642;2024-03-23T05:07:06;7.90;99.90
3380;DHT22;1703;51.964;7.642;2024-03-23T05:09:33;7.90;99.90
3380;DHT22;1703;51.964;7.642;2024-03-23T05:11:59;7.80;99.90
3380;DHT22;1703;51.964;7.642;2024-03-23T05:14:28;7.80;99.90
3380;DHT22;1703;51.964;7.642;2024-03-23T05:16:54;7.90;99.90
3380;DHT22;1703;51.964;7.642;2024-03-23T05:19:21;7.80;99.90
3380;DHT22;1703;51.964;7.642;2024-03-23T05:21:47;7.80;99.90
3380;DHT22;1703;51.964;7.642;2024-03-23T05:24:14;7.80;99.90
3380;DHT22;1703;51.964;7.642;2024-03-23T05:26:40;7.80;99.90
3380;DHT22;1703;51.964;7.642;2024-03-23T05:29:07;7.80;99.90
3380;DHT22;1703;51.964;7.642;2024-03-23T05:31:37;7.70;99.90
3380;DHT22;1703;51.964;7.642;2024-03-23T05:34:04;7.80;99.90
3380;DHT22;1703;51.964;7.642;2024-03-23T05:36:30;7.80;99.90
3380;DHT22;1703;51.964;7.642;2024-03-23T05:38:58;7.80;99.90
3380;DHT22;1703;51.964;7.642;2024-03-23T05:41:23;7.70;99.90
3380;DHT22;1703;51.964;7.642;2024-03-23T05:43:50;7.80;99.90
3380;DHT22;1703;51.964;7.642;2024-03-23T05:46:16;7.70;99.90
3380;DHT22;1703;51.964;7.642;2024-03-23T05:48:44;7.70;99.90
3380;DHT22;1703;51.964;7.642;2024-03-23T05:51:11;7.70;99.90
3380;DHT22;1703;51.964;7.642;2024-03-23T05:53:38;7.70;99.90
3380;DHT22;1703;51.964;7.642;2024-03-23T05:56:05;7.60;99.90
3380;DHT22;1703;51.964;7.642;2024-03-23T05:58:31;7.50;99.90
3380;DHT22;1703;51.964;7.642;2024-03-23T06:00:58;7.50;99.90
3380;DHT22;1703;51.964;7.642;2024-03-23T06:03:24;7.50;99.90
3380;DHT22;1703;51.964;7.642;2024-03-23T06:05:53;7.50;99.90
3380;DHT22;1703;51.964;7.642;2024-03-23T06:08:18;7.50;99.90
3380;DHT22;1703;51.964;7.642;2024-03-23T06:10:46;7.50;99.90
3380;DHT22;1703;51.964;7.642;2024-03-23T06:13:12;7.50;99.90
3380;DHT22;1703;51.964;7.642;2024-03-23T06:15:38;7.50;99.90
3380;DHT22;1703;51.964;7.642;2024-03-23T06:18:04;7.40;99.90
3380;DHT22;1703;51.964;7.642;2024-03-23T06:20:33;7.40;99.90
3380;DHT22;1703;51.964;7.642;2024-03-23T06:23:00;7.40;99.90
3380;DHT22;1703;51.964;7.642;2024-03-23T06:25:27;7.40;99.90
3380;DHT22;1703;51.964;7.642;2024-03-23T06:27:54;7.50;99.90
3380;DHT22;1703;51.964;7.642;2024-03-23T06:30:21;7.50;99.90
3380;DHT22;1703;51.964;7.642;2024-03-23T06:32:47;7.50;99.90
3380;DHT22;1703;51.964;7.642;2024-03-23T06:35:14;7.60;99.90
3380;DHT22;1703;51.964;7.642;2024-03-23T06:37:40;7.70;99.90
3380;DHT22;1703;51.964;7.642;2024-03-23T06:40:08;7.70;99.90
3380;DHT22;1703;51.964;7.642;2024-03-23T06:42:35;7.80;99.90
3380;DHT22;1703;51.964;7.642;2024-03-23T06:45:03;7.70;99.90
3380;DHT22;1703;51.964;7.642;2024-03-23T06:47:30;7.80;99.90
3380;DHT22;1703;51.964;7.642;2024-03-23T06:49:57;7.70;99.90
3380;DHT22;1703;51.964;7.642;2024-03-23T06:52:23;7.70;99.90
3380;DHT22;1703;51.964;7.642;2024-03-23T06:54:49;7.70;99.90
3380;DHT22;1703;51.964;7.642;2024-03-23T06:57:17;7.60;99.90
3380;DHT22;1703;51.964;7.642;2024-03-23T06:59:43;7.60;99.90
3380;DHT22;1703;51.964;7.642;2024-03-23T07:02:09;7.60;99.90
3380;DHT22;1703;51.964;7.642;2024-03-23T07:04:37;7.60;99.90
3380;DHT22;1703;51.964;7.642;2024-03-23T07:07:05;7.60;99.90
3380;DHT22;1703;51.964;7.642;2024-03-23T07:09:32;7.60;99.90
3380;DHT22;1703;51.964;7.642;2024-03-23T07:11:57;7.70;99.90
3380;DHT22;1703;51.964;7.642;2024-03-23T07:14:25;7.70;99.90
3380;DHT22;1703;51.964;7.642;2024-03-23T07:16:51;7.80;99.90
3380;DHT22;1703;51.964;7.642;2024-03-23T07:19:18;8.00;99.90
3380;DHT22;1703;51.964;7.642;2024-03-23T07:21:44;8.10;99.90
3380;DHT22;1703;51.964;7.642;2024-03-23T07:24:12;8.10;99.90
3380;DHT22;1703;51.964;7.642;2024-03-23T07:26:37;8.20;99.90
3380;DHT22;1703;51.964;7.642;2024-03-23T07:29:05;8.10;99.90
3380;DHT22;1703;51.964;7.642;2024-03-23T07:31:32;8.10;99.90
3380;DHT22;1703;51.964;7.642;2024-03-23T07:33:59;8.10;99.90
3380;DHT22;1703;51.964;7.642;2024-03-23T07:36:25;8.10;99.90
3380;DHT22;1703;51.964;7.642;2024-03-23T07:38:52;8.10;99.90
3380;DHT22;1703;51.964;7.642;2024-03-23T07:41:19;8.10;99.90
3380;DHT22;1703;51.964;7.642;2024-03-23T07:43:47;8.10;99.90
3380;DHT22;1703;51.964;7.642;2024-03-23T07:46:15;8.20;99.90
3380;DHT22;1703;51.964;7.642;2024-03-23T07:48:43;8.20;99.90
3380;DHT22;1703;51.964;7.642;2024-03-23T07:51:10;8.30;99.90
3380;DHT22;1703;51.964;7.642;2024-03-23T07:53:37;8.30;99.90
3380;DHT22;1703;51.964;7.642;2024-03-23T07:56:06;8.30;99.90
3380;DHT22;1703;51.964;7.642;2024-03-23T07:58:33;8.40;99.90
3380;DHT22;1703;51.964;7.642;2024-03-23T08:01:04;8.50;99.90
3380;DHT22;1703;51.964;7.642;2024-03-23T08:03:33;8.60;99.90
3380;DHT22;1703;51.964;7.642;2024-03-23T08:06:08;8.60;99.90
3380;DHT22;1703;51.964;7.642;2024-03-23T08:08:35;8.70;99.90
3380;DHT22;1703;51.964;7.642;2024-03-23T08:11:01;8.80;99.90
3380;DHT22;1703;51.964;7.642;2024-03-23T08:13:28;8.80;99.90
3380;DHT22;1703;51.964;7.642;2024-03-23T08:15:56;8.90;99.90
3380;DHT22;1703;51.964;7.642;2024-03-23T08:18:23;8.90;99.90
3380;DHT22;1703;51.964;7.642;2024-03-23T08:20:55;8.90;99.90
3380;DHT22;1703;51.964;7.642;2024-03-23T08:23:25;8.90;99.90
3380;DHT22;1703;51.964;7.642;2024-03-23T08:25:51;8.90;99.90
3380;DHT22;1703;51.964;7.642;2024-03-23T08:28:18;8.80;99.90
3380;DHT22;1703;51.964;7.642;2024-03-23T08:30:44;8.80;99.90
3380;DHT22;1703;51.964;7.642;2024-03-23T08:33:10;8.90;99.90
3380;DHT22;1703;51.964;7.642;2024-03-23T08:35:36;9.00;99.90
3380;DHT22;1703;51.964;7.642;2024-03-23T08:38:03;9.20;99.90
3380;DHT22;1703;51.964;7.642;2024-03-23T08:40:30;9.20;99.90
3380;DHT22;1703;51.964;7.642;2024-03-23T08:42:57;8.90;99.90
3380;DHT22;1703;51.964;7.642;2024-03-23T08:45:24;9.00;99.90
3380;DHT22;1703;51.964;7.642;2024-03-23T08:47:51;9.20;99.90
3380;DHT22;1703;51.964;7.642;2024-03-23T08:50:17;9.00;99.90
3380;DHT22;1703;51.964;7.642;2024-03-23T08:52:44;9.00;99.90
3380;DHT22;1703;51.964;7.642;2024-03-23T08:55:10;9.10;99.90
3380;DHT22;1703;51.964;7.642;2024-03-23T08:57:38;9.20;99.90
3380;DHT22;1703;51.964;7.642;2024-03-23T09:00:05;9.10;99.90
3380;DHT22;1703;51.964;7.642;2024-03-23T09:02:34;9.10;99.90
3380;DHT22;1703;51.964;7.642;2024-03-23T09:05:00;9.00;99.90
3380;DHT22;1703;51.964;7.642;2024-03-23T09:07:30;9.00;99.90
3380;DHT22;1703;51.964;7.642;2024-03-23T09:09:56;9.10;99.90
3380;DHT22;1703;51.964;7.642;2024-03-23T09:12:22;9.20;99.90
3380;DHT22;1703;51.964;7.642;2024-03-23T09:14:51;9.30;99.90
3380;DHT22;1703;51.964;7.642;2024-03-23T09:17:18;9.50;99.90
3380;DHT22;1703;51.964;7.642;2024-03-23T09:19:45;9.60;99.90
3380;DHT22;1703;51.964;7.642;2024-03-23T09:22:11;9.70;99.90
3380;DHT22;1703;51.964;7.642;2024-03-23T09:24:38;9.70;99.90
3380;DHT22;1703;51.964;7.642;2024-03-23T09:27:04;9.60;99.90
3380;DHT22;1703;51.964;7.642;2024-03-23T09:29:31;9.60;99.90
3380;DHT22;1703;51.964;7.642;2024-03-23T09:31:58;9.70;99.90
3380;DHT22;1703;51.964;7.642;2024-03-23T09:34:25;9.70;99.90
3380;DHT22;1703;51.964;7.642;2024-03-23T09:36:51;9.70;99.90
3380;DHT22;1703;51.964;7.642;2024-03-23T09:39:18;9.60;99.90
3380;DHT22;1703;51.964;7.642;2024-03-23T09:41:44;9.40;99.90
3380;DHT22;1703;51.964;7.642;2024-03-23T09:44:11;9.10;99.90
3380;DHT22;1703;51.964;7.642;2024-03-23T09:46:38;9.00;99.90
3380;DHT22;1703;51.964;7.642;2024-03-23T09:49:07;8.80;99.90
3380;DHT22;1703;51.964;7.642;2024-03-23T09:51:36;8.70;99.90
3380;DHT22;1703;51.964;7.642;2024-03-23T09:54:02;8.50;99.90
3380;DHT22;1703;51.964;7.642;2024-03-23T09:56:29;8.50;99.90
3380;DHT22;1703;51.964;7.642;2024-03-23T09:59:00;8.50;99.90
3380;DHT22;1703;51.964;7.642;2024-03-23T10:01:29;8.60;99.90
3380;DHT22;1703;51.964;7.642;2024-03-23T10:03:55;8.70;99.90
3380;DHT22;1703;51.964;7.642;2024-03-23T10:06:23;8.80;99.90
3380;DHT22;1703;51.964;7.642;2024-03-23T10:08:50;9.00;99.90
3380;DHT22;1703;51.964;7.642;2024-03-23T10:11:19;9.10;99.90
3380;DHT22;1703;51.964;7.642;2024-03-23T10:13:45;9.20;99.90
3380;DHT22;1703;51.964;7.642;2024-03-23T10:16:21;9.20;99.90
3380;DHT22;1703;51.964;7.642;2024-03-23T10:18:47;9.30;99.90
3380;DHT22;1703;51.964;7.642;2024-03-23T10:21:15;9.40;99.90
3380;DHT22;1703;51.964;7.642;2024-03-23T10:23:43;9.50;99.90
3380;DHT22;1703;51.964;7.642;2024-03-23T10:26:17;9.60;99.90
3380;DHT22;1703;51.964;7.642;2024-03-23T10:28:56;9.70;99.90
3380;DHT22;1703;51.964;7.642;2024-03-23T10:31:26;9.70;99.90
3380;DHT22;1703;51.964;7.642;2024-03-23T10:33:53;9.80;99.90
3380;DHT22;1703;51.964;7.642;2024-03-23T10:36:21;9.90;99.90
3380;DHT22;1703;51.964;7.642;2024-03-23T10:38:50;10.00;99.90
3380;DHT22;1703;51.964;7.642;2024-03-23T10:41:17;10.10;99.90
3380;DHT22;1703;51.964;7.642;2024-03-23T10:43:45;10.30;99.90
3380;DHT22;1703;51.964;7.642;2024-03-23T10:46:12;10.50;99.90
3380;DHT22;1703;51.964;7.642;2024-03-23T10:48:38;10.60;99.90
3380;DHT22;1703;51.964;7.642;2024-03-23T10:51:07;10.40;99.90
3380;DHT22;1703;51.964;7.642;2024-03-23T10:53:34;10.40;99.90
3380;DHT22;1703;51.964;7.642;2024-03-23T10:56:04;10.50;99.90
3380;DHT22;1703;51.964;7.642;2024-03-23T10:58:32;10.40;99.90
3380;DHT22;1703;51.964;7.642;2024-03-23T11:01:00;10.40;99.90
3380;DHT22;1703;51.964;7.642;2024-03-23T11:03:35;10.60;99.90
3380;DHT22;1703;51.964;7.642;2024-03-23T11:06:03;10.80;99.90
3380;DHT22;1703;51.964;7.642;2024-03-23T11:08:33;10.70;99.90
3380;DHT22;1703;51.964;7.642;2024-03-23T11:11:24;10.60;99.90
3380;DHT22;1703;51.964;7.642;2024-03-23T11:13:51;10.60;99.90
3380;DHT22;1703;51.964;7.642;2024-03-23T11:16:22;10.60;99.90
3380;DHT22;1703;51.964;7.642;2024-03-23T11:18:48;10.60;99.90
3380;DHT22;1703;51.964;7.642;2024-03-23T11:24:15;10.60;99.90
3380;DHT22;1703;51.964;7.642;2024-03-23T11:26:43;10.30;99.90
3380;DHT22;1703;51.964;7.642;2024-03-23T11:29:09;10.00;99.90
3380;DHT22;1703;51.964;7.642;2024-03-23T11:31:36;9.80;99.90
3380;DHT22;1703;51.964;7.642;2024-03-23T11:34:03;9.60;99.90
3380;DHT22;1703;51.964;7.642;2024-03-23T11:36:30;9.40;99.90
3380;DHT22;1703;51.964;7.642;2024-03-23T11:38:56;9.10;99.90
3380;DHT22;1703;51.964;7.642;2024-03-23T11:41:23;9.00;99.90
3380;DHT22;1703;51.964;7.642;2024-03-23T11:43:50;8.90;99.90
3380;DHT22;1703;51.964;7.642;2024-03-23T11:46:22;8.80;99.90
3380;DHT22;1703;51.964;7.642;2024-03-23T11:48:49;8.80;99.90
3380;DHT22;1703;51.964;7.642;2024-03-23T11:51:17;8.80;99.90
3380;DHT22;1703;51.964;7.642;2024-03-23T11:53:43;8.70;99.90
3380;DHT22;1703;51.964;7.642;2024-03-23T11:56:09;8.70;99.90
3380;DHT22;1703;51.964;7.642;2024-03-23T11:58:35;8.70;99.90
3380;DHT22;1703;51.964;7.642;2024-03-23T12:01:04;8.80;99.90
3380;DHT22;1703;51.964;7.642;2024-03-23T12:03:31;8.90;99.90
3380;DHT22;1703;51.964;7.642;2024-03-23T12:06:00;9.10;99.90
3380;DHT22;1703;51.964;7.642;2024-03-23T12:08:29;9.20;99.90
3380;DHT22;1703;51.964;7.642;2024-03-23T12:11:05;9.40;99.90
3380;DHT22;1703;51.964;7.642;2024-03-23T12:13:32;9.60;99.90
3380;DHT22;1703;51.964;7.642;2024-03-23T12:16:11;9.70;99.90
3380;DHT22;1703;51.964;7.642;2024-03-23T12:18:37;9.90;99.90
3380;DHT22;1703;51.964;7.642;2024-03-23T12:21:05;10.00;99.90
3380;DHT22;1703;51.964;7.642;2024-03-23T12:23:31;10.10;99.90
3380;DHT22;1703;51.964;7.642;2024-03-23T12:25:58;10.20;99.90
3380;DHT22;1703;51.964;7.642;2024-03-23T12:28:25;10.10;99.90
3380;DHT22;1703;51.964;7.642;2024-03-23T12:30:51;9.90;99.90
3380;DHT22;1703;51.964;7.642;2024-03-23T12:33:19;9.70;99.90
3380;DHT22;1703;51.964;7.642;2024-03-23T12:35:50;9.50;99.90
3380;DHT22;1703;51.964;7.642;2024-03-23T12:38:18;9.60;99.90
3380;DHT22;1703;51.964;7.642;2024-03-23T12:40:46;9.70;99.90
3380;DHT22;1703;51.964;7.642;2024-03-23T12:43:14;9.60;99.90
3380;DHT22;1703;51.964;7.642;2024-03-23T12:45:40;9.60;99.90
3380;DHT22;1703;51.964;7.642;2024-03-23T12:48:07;9.50;99.90
3380;DHT22;1703;51.964;7.642;2024-03-23T12:50:35;9.40;99.90
3380;DHT22;1703;51.964;7.642;2024-03-23T12:53:01;9.50;99.90
3380;DHT22;1703;51.964;7.642;2024-03-23T12:55:27;9.70;99.90
3380;DHT22;1703;51.964;7.642;2024-03-23T12:57:54;9.90;99.90
3380;DHT22;1703;51.964;7.642;2024-03-23T13:00:20;9.90;99.90
3380;DHT22;1703;51.964;7.642;2024-03-23T13:02:47;9.80;99.90
3380;DHT22;1703;51.964;7.642;2024-03-23T13:05:12;9.90;99.90
3380;DHT22;1703;51.964;7.642;2024-03-23T13:07:40;9.80;99.90
3380;DHT22;1703;51.964;7.642;2024-03-23T13:10:07;9.80;99.90
3380;DHT22;1703;51.964;7.642;2024-03-23T13:12:34;10.00;99.90
3380;DHT22;1703;51.964;7.642;2024-03-23T13:15:00;10.10;99.90
3380;DHT22;1703;51.964;7.642;2024-03-23T13:17:27;10.10;99.90
3380;DHT22;1703;51.964;7.642;2024-03-23T13:19:52;10.30;99.90
3380;DHT22;1703;51.964;7.642;2024-03-23T13:22:19;10.30;99.90
3380;DHT22;1703;51.964;7.642;2024-03-23T13:24:47;10.30;99.90
3380;DHT22;1703;51.964;7.642;2024-03-23T13:27:14;10.20;99.90
3380;DHT22;1703;51.964;7.642;2024-03-23T13:29:40;10.20;99.90
3380;DHT22;1703;51.964;7.642;2024-03-23T13:32:07;10.30;99.90
3380;DHT22;1703;51.964;7.642;2024-03-23T13:34:33;10.10;99.90
3380;DHT22;1703;51.964;7.642;2024-03-23T13:37:00;9.80;99.90
3380;DHT22;1703;51.964;7.642;2024-03-23T13:39:26;9.50;99.90
3380;DHT22;1703;51.964;7.642;2024-03-23T13:41:55;9.30;99.90
3380;DHT22;1703;51.964;7.642;2024-03-23T13:44:21;9.10;99.90
3380;DHT22;1703;51.964;7.642;2024-03-23T13:46:48;9.00;99.90
3380;DHT22;1703;51.964;7.642;2024-03-23T13:49:24;8.90;99.90
3380;DHT22;1703;51.964;7.642;2024-03-23T13:51:52;8.80;99.90
3380;DHT22;1703;51.964;7.642;2024-03-23T13:54:18;8.60;99.90
3380;DHT22;1703;51.964;7.642;2024-03-23T13:56:45;8.50;99.90
3380;DHT22;1703;51.964;7.642;2024-03-23T13:59:12;8.50;99.90
3380;DHT22;1703;51.964;7.642;2024-03-23T14:01:39;8.40;99.90
3380;DHT22;1703;51.964;7.642;2024-03-23T14:04:06;8.40;99.90
3380;DHT22;1703;51.964;7.642;2024-03-23T14:06:33;8.50;99.90
3380;DHT22;1703;51.964;7.642;2024-03-23T14:08:59;8.60;99.90
3380;DHT22;1703;51.964;7.642;2024-03-23T14:11:25;8.80;99.90
3380;DHT22;1703;51.964;7.642;2024-03-23T14:13:52;9.40;99.90
3380;DHT22;1703;51.964;7.642;2024-03-23T14:16:20;10.00;99.90
3380;DHT22;1703;51.964;7.642;2024-03-23T14:18:46;10.60;99.90
3380;DHT22;1703;51.964;7.642;2024-03-23T14:21:13;10.90;99.90
3380;DHT22;1703;51.964;7.642;2024-03-23T14:23:39;11.60;99.90
3380;DHT22;1703;51.964;7.642;2024-03-23T14:26:07;11.50;99.90
3380;DHT22;1703;51.964;7.642;2024-03-23T14:28:33;11.50;99.90
3380;DHT22;1703;51.964;7.642;2024-03-23T14:31:00;12.00;99.90
3380;DHT22;1703;51.964;7.642;2024-03-23T14:33:27;12.00;99.90
3380;DHT22;1703;51.964;7.642;2024-03-23T14:35:55;12.20;99.90
3380;DHT22;1703;51.964;7.642;2024-03-23T14:38:21;12.20;99.90
3380;DHT22;1703;51.964;7.642;2024-03-23T14:40:49;12.40;99.90
3380;DHT22;1703;51.964;7.642;2024-03-23T14:43:15;12.10;99.90
3380;DHT22;1703;51.964;7.642;2024-03-23T14:46:09;11.50;99.90
3380;DHT22;1703;51.964;7.642;2024-03-23T14:48:36;11.00;99.90
3380;DHT22;1703;51.964;7.642;2024-03-23T14:51:04;11.00;99.90
3380;DHT22;1703;51.964;7.642;2024-03-23T14:53:31;10.90;99.90
3380;DHT22;1703;51.964;7.642;2024-03-23T14:55:58;10.80;99.90
3380;DHT22;1703;51.964;7.642;2024-03-23T14:58:25;11.10;99.90
3380;DHT22;1703;51.964;7.642;2024-03-23T15:00:52;11.10;99.90
3380;DHT22;1703;51.964;7.642;2024-03-23T15:03:18;10.90;99.90
3380;DHT22;1703;51.964;7.642;2024-03-23T15:05:53;10.80;99.90
3380;DHT22;1703;51.964;7.642;2024-03-23T15:08:19;10.80;99.90
3380;DHT22;1703;51.964;7.642;2024-03-23T15:10:46;10.70;99.90
3380;DHT22;1703;51.964;7.642;2024-03-23T15:13:12;10.50;99.90
3380;DHT22;1703;51.964;7.642;2024-03-23T15:15:40;10.40;99.90
3380;DHT22;1703;51.964;7.642;2024-03-23T15:18:07;10.30;99.90
3380;DHT22;1703;51.964;7.642;2024-03-23T15:20:33;10.10;99.90
3380;DHT22;1703;51.964;7.642;2024-03-23T15:23:03;9.90;99.90
3380;DHT22;1703;51.964;7.642;2024-03-23T15:25:29;9.70;99.90
3380;DHT22;1703;51.964;7.642;2024-03-23T15:27:56;9.60;99.90
3380;DHT22;1703;51.964;7.642;2024-03-23T15:30:23;9.40;99.90
3380;DHT22;1703;51.964;7.642;2024-03-23T15:32:49;9.10;99.90
3380;DHT22;1703;51.964;7.642;2024-03-23T15:35:15;8.80;99.90
3380;DHT22;1703;51.964;7.642;2024-03-23T15:37:41;8.70;99.90
3380;DHT22;1703;51.964;7.642;2024-03-23T15:40:11;8.70;99.90
3380;DHT22;1703;51.964;7.642;2024-03-23T15:42:38;8.80;99.90
3380;DHT22;1703;51.964;7.642;2024-03-23T15:45:06;8.70;99.90
3380;DHT22;1703;51.964;7.642;2024-03-23T15:47:33;8.70;99.90
3380;DHT22;1703;51.964;7.642;2024-03-23T15:50:00;8.90;99.90
3380;DHT22;1703;51.964;7.642;2024-03-23T15:52:25;9.00;99.90
3380;DHT22;1703;51.964;7.642;2024-03-23T15:54:52;9.00;99.90
3380;DHT22;1703;51.964;7.642;2024-03-23T15:57:19;8.90;99.90
3380;DHT22;1703;51.964;7.642;2024-03-23T15:59:48;8.80;99.90
3380;DHT22;1703;51.964;7.642;2024-03-23T16:02:14;8.80;99.90
3380;DHT22;1703;51.964;7.642;2024-03-23T16:04:41;8.70;99.90
3380;DHT22;1703;51.964;7.642;2024-03-23T16:07:07;8.70;99.90
3380;DHT22;1703;51.964;7.642;2024-03-23T16:09:35;8.80;99.90
3380;DHT22;1703;51.964;7.642;2024-03-23T16:12:01;8.80;99.90
3380;DHT22;1703;51.964;7.642;2024-03-23T16:14:29;8.90;99.90
3380;DHT22;1703;51.964;7.642;2024-03-23T16:16:55;8.90;99.90
3380;DHT22;1703;51.964;7.642;2024-03-23T16:19:22;8.80;99.90
3380;DHT22;1703;51.964;7.642;2024-03-23T16:21:48;8.80;99.90
3380;DHT22;1703;51.964;7.642;2024-03-23T16:24:15;8.90;99.90
3380;DHT22;1703;51.964;7.642;2024-03-23T16:26:41;8.90;99.90
3380;DHT22;1703;51.964;7.642;2024-03-23T16:29:11;8.90;99.90
3380;DHT22;1703;51.964;7.642;2024-03-23T16:31:38;8.90;99.90
3380;DHT22;1703;51.964;7.642;2024-03-23T16:34:05;8.90;99.90
3380;DHT22;1703;51.964;7.642;2024-03-23T16:36:30;9.00;99.90
3380;DHT22;1703;51.964;7.642;2024-03-23T16:38:57;9.00;99.90
3380;DHT22;1703;51.964;7.642;2024-03-23T16:41:23;9.00;99.90
3380;DHT22;1703;51.964;7.642;2024-03-23T16:43:50;9.00;99.90
3380;DHT22;1703;51.964;7.642;2024-03-23T16:46:16;9.00;99.90
3380;DHT22;1703;51.964;7.642;2024-03-23T16:48:44;8.90;99.90
3380;DHT22;1703;51.964;7.642;2024-03-23T16:51:11;8.90;99.90
3380;DHT22;1703;51.964;7.642;2024-03-23T16:53:39;8.90;99.90
3380;DHT22;1703;51.964;7.642;2024-03-23T16:56:07;8.90;99.90
3380;DHT22;1703;51.964;7.642;2024-03-23T16:58:34;8.90;99.90
3380;DHT22;1703;51.964;7.642;2024-03-23T17:01:03;8.90;99.90
3380;DHT22;1703;51.964;7.642;2024-03-23T17:03:30;8.80;99.90
3380;DHT22;1703;51.964;7.642;2024-03-23T17:05:57;8.90;99.90
3380;DHT22;1703;51.964;7.642;2024-03-23T17:08:23;8.80;99.90